createdAt,value
2022-10-22T00:01:20.660Z,17.40
2022-10-22T00:03:48.413Z,15.13
2022-10-22T00:06:19.558Z,16.00
2022-10-22T00:08:47.759Z,15.53
2022-10-22T00:11:18.840Z,15.63
2022-10-22T00:16:16.047Z,16.03
2022-10-22T00:18:44.291Z,15.30
2022-10-22T00:21:13.161Z,15.50
2022-10-22T00:23:44.534Z,16.13
2022-10-22T00:26:16.240Z,15.80
2022-10-22T00:28:44.542Z,14.43
2022-10-22T00:31:13.241Z,15.33
2022-10-22T00:33:42.838Z,14.70
2022-10-22T00:36:10.873Z,14.73
2022-10-22T00:38:38.959Z,15.67
2022-10-22T00:41:07.473Z,14.97
2022-10-22T00:43:35.405Z,14.77
2022-10-22T00:46:03.784Z,15.37
2022-10-22T00:48:34.732Z,15.93
2022-10-22T00:51:08.729Z,15.70
2022-10-22T00:53:45.669Z,15.33
2022-10-22T00:56:17.480Z,15.67
2022-10-22T00:58:50.039Z,15.77
2022-10-22T01:01:25.000Z,15.00
2022-10-22T01:03:53.657Z,15.53
2022-10-22T01:06:31.255Z,14.80
2022-10-22T01:09:06.093Z,15.53
2022-10-22T01:11:52.858Z,14.87
2022-10-22T01:14:32.949Z,15.13
2022-10-22T01:17:12.195Z,15.70
2022-10-22T01:20:12.264Z,15.10
2022-10-22T01:22:46.532Z,16.43
2022-10-22T01:25:51.782Z,15.10
2022-10-22T01:28:45.283Z,15.80
2022-10-22T01:31:16.560Z,15.20
2022-10-22T01:33:47.855Z,15.83
2022-10-22T01:36:18.422Z,14.97
2022-10-22T01:38:50.702Z,15.03
2022-10-22T01:41:19.538Z,15.93
2022-10-22T01:43:48.006Z,15.77
2022-10-22T01:46:17.049Z,16.10
2022-10-22T01:49:04.338Z,15.57
2022-10-22T01:52:06.143Z,15.57
2022-10-22T01:54:51.732Z,15.20
2022-10-22T01:57:48.344Z,15.23
2022-10-22T02:00:19.082Z,15.53
2022-10-22T02:03:11.779Z,15.63
2022-10-22T02:05:49.250Z,16.13
2022-10-22T02:08:23.676Z,16.20
2022-10-22T02:10:55.067Z,15.57
2022-10-22T02:13:28.574Z,15.40
2022-10-22T02:15:57.366Z,15.17
2022-10-22T02:18:30.824Z,16.20
2022-10-22T02:21:04.438Z,16.13
2022-10-22T02:23:32.370Z,16.07
2022-10-22T02:26:33.620Z,15.83
2022-10-22T02:29:11.474Z,16.70
2022-10-22T02:31:43.192Z,17.20
2022-10-22T02:34:16.065Z,15.73
2022-10-22T02:36:48.116Z,16.13
2022-10-22T02:39:19.399Z,16.13
2022-10-22T02:41:47.340Z,15.47
2022-10-22T02:44:14.704Z,15.23
2022-10-22T02:46:43.941Z,15.63
2022-10-22T02:49:11.323Z,16.47
2022-10-22T02:51:38.840Z,16.33
2022-10-22T02:54:06.613Z,17.13
2022-10-22T02:56:34.447Z,16.13
2022-10-22T02:59:01.566Z,17.07
2022-10-22T03:01:29.073Z,17.13
2022-10-22T03:03:56.415Z,16.50
2022-10-22T03:08:51.212Z,17.33
2022-10-22T03:11:18.719Z,16.67
2022-10-22T03:13:46.176Z,17.63
2022-10-22T03:16:15.250Z,19.00
2022-10-22T03:18:43.000Z,17.03
2022-10-22T03:21:36.411Z,16.53
2022-10-22T03:24:11.472Z,18.57
2022-10-22T03:26:41.659Z,17.57
2022-10-22T03:29:11.222Z,17.07
2022-10-22T03:31:39.755Z,17.37
2022-10-22T03:34:07.366Z,17.63
2022-10-22T03:36:35.267Z,16.93
2022-10-22T03:39:05.647Z,17.27
2022-10-22T03:41:34.369Z,17.20
2022-10-22T03:44:04.667Z,16.67
2022-10-22T03:46:34.420Z,17.30
2022-10-22T03:49:01.949Z,17.00
2022-10-22T03:51:30.339Z,17.37
2022-10-22T03:53:58.414Z,17.10
2022-10-22T03:56:26.568Z,17.13
2022-10-22T03:58:57.648Z,16.83
2022-10-22T04:01:26.899Z,17.17
2022-10-22T04:03:56.191Z,17.77
2022-10-22T04:06:24.453Z,16.70
2022-10-22T04:08:52.491Z,16.23
2022-10-22T04:11:20.708Z,16.00
2022-10-22T04:13:48.379Z,16.17
2022-10-22T04:16:19.158Z,17.43
2022-10-22T04:18:48.894Z,16.57
2022-10-22T04:21:19.224Z,15.70
2022-10-22T04:23:55.461Z,15.90
2022-10-22T04:26:24.105Z,15.73
2022-10-22T04:28:52.733Z,16.47
2022-10-22T04:31:23.584Z,15.50
2022-10-22T04:33:58.626Z,16.03
2022-10-22T04:36:30.767Z,17.53
2022-10-22T04:39:01.101Z,15.40
2022-10-22T04:41:37.290Z,15.40
2022-10-22T04:44:05.741Z,14.97
2022-10-22T04:46:35.755Z,15.20
2022-10-22T04:49:05.298Z,15.30
2022-10-22T04:51:33.746Z,16.40
2022-10-22T04:54:01.412Z,15.60
2022-10-22T04:56:31.656Z,16.03
2022-10-22T04:59:02.060Z,16.07
2022-10-22T05:01:35.792Z,16.80
2022-10-22T05:04:08.131Z,15.57
2022-10-22T05:06:37.760Z,16.33
2022-10-22T05:09:08.757Z,15.93
2022-10-22T05:11:39.136Z,15.57
2022-10-22T05:14:08.151Z,16.27
2022-10-22T05:16:38.403Z,16.63
2022-10-22T05:19:07.129Z,16.63
2022-10-22T05:21:35.691Z,16.57
2022-10-22T05:24:04.295Z,16.93
2022-10-22T05:26:32.284Z,16.47
2022-10-22T05:28:59.692Z,16.57
2022-10-22T05:31:29.344Z,17.07
2022-10-22T05:33:57.245Z,16.17
2022-10-22T05:36:25.267Z,18.00
2022-10-22T05:38:53.205Z,16.83
2022-10-22T05:41:23.935Z,16.27
2022-10-22T05:43:54.481Z,16.60
2022-10-22T05:46:24.272Z,17.10
2022-10-22T05:49:02.100Z,16.37
2022-10-22T05:51:33.616Z,16.47
2022-10-22T05:54:03.817Z,16.93
2022-10-22T05:56:34.121Z,15.90
2022-10-22T06:01:33.850Z,17.03
2022-10-22T06:04:06.383Z,16.07
2022-10-22T06:06:37.224Z,16.73
2022-10-22T06:09:11.339Z,16.60
2022-10-22T06:11:40.812Z,16.30
2022-10-22T06:14:09.296Z,16.67
2022-10-22T06:16:38.685Z,16.10
2022-10-22T06:19:07.118Z,17.20
2022-10-22T06:21:35.284Z,16.67
2022-10-22T06:24:03.074Z,15.40
2022-10-22T06:26:31.377Z,17.27
2022-10-22T06:28:59.463Z,16.97
2022-10-22T06:31:29.002Z,15.57
2022-10-22T06:33:59.899Z,16.23
2022-10-22T06:36:27.888Z,15.90
2022-10-22T06:38:56.786Z,16.90
2022-10-22T06:41:28.650Z,16.77
2022-10-22T06:43:57.970Z,16.03
2022-10-22T06:46:26.313Z,16.93
2022-10-22T06:48:56.298Z,15.80
2022-10-22T06:51:24.138Z,16.20
2022-10-22T06:53:51.342Z,16.10
2022-10-22T06:56:21.544Z,15.17
2022-10-22T06:58:53.516Z,14.57
2022-10-22T07:01:26.415Z,15.77
2022-10-22T07:03:54.476Z,15.70
2022-10-22T07:06:23.042Z,16.83
2022-10-22T07:08:50.666Z,15.83
2022-10-22T07:11:20.866Z,15.47
2022-10-22T07:13:48.253Z,16.30
2022-10-22T07:16:15.990Z,14.23
2022-10-22T07:18:43.609Z,14.63
2022-10-22T07:21:12.415Z,14.47
2022-10-22T07:23:39.867Z,14.90
2022-10-22T07:26:07.520Z,13.97
2022-10-22T07:28:36.571Z,14.50
2022-10-22T07:31:04.021Z,14.13
2022-10-22T07:33:31.030Z,14.77
2022-10-22T07:36:03.074Z,14.70
2022-10-22T07:38:31.587Z,13.63
2022-10-22T07:40:59.146Z,14.30
2022-10-22T07:43:26.762Z,13.87
2022-10-22T07:45:55.898Z,14.47
2022-10-22T07:48:23.639Z,13.73
2022-10-22T07:50:51.897Z,14.53
2022-10-22T07:53:19.165Z,15.23
2022-10-22T07:55:49.320Z,13.90
2022-10-22T07:58:19.820Z,14.70
2022-10-22T08:00:47.754Z,14.03
2022-10-22T08:03:15.771Z,14.37
2022-10-22T08:05:45.870Z,14.53
2022-10-22T08:08:14.375Z,14.53
2022-10-22T08:10:41.789Z,14.27
2022-10-22T08:13:08.812Z,14.33
2022-10-22T08:15:36.482Z,14.80
2022-10-22T08:18:03.479Z,14.47
2022-10-22T08:20:30.794Z,14.57
2022-10-22T08:22:58.439Z,14.73
2022-10-22T08:25:25.954Z,15.13
2022-10-22T08:27:52.884Z,13.77
2022-10-22T08:30:20.260Z,13.93
2022-10-22T08:32:49.342Z,14.47
2022-10-22T08:35:18.869Z,14.03
2022-10-22T08:37:45.754Z,13.97
2022-10-22T08:40:24.305Z,13.43
2022-10-22T08:43:18.082Z,13.03
2022-10-22T08:45:59.521Z,13.53
2022-10-22T08:48:49.518Z,12.87
2022-10-22T08:51:20.394Z,13.27
2022-10-22T08:54:06.046Z,14.53
2022-10-22T08:56:36.477Z,12.53
2022-10-22T08:59:25.490Z,12.80
2022-10-22T09:01:54.233Z,13.00
2022-10-22T09:04:33.108Z,12.93
2022-10-22T09:07:00.970Z,13.47
2022-10-22T09:09:35.020Z,12.87
2022-10-22T09:12:05.043Z,13.40
2022-10-22T09:14:32.064Z,13.17
2022-10-22T09:17:35.366Z,13.93
2022-10-22T09:20:23.837Z,12.80
2022-10-22T09:22:57.237Z,12.87
2022-10-22T09:25:27.458Z,13.57
2022-10-22T09:27:58.430Z,14.10
2022-10-22T09:30:31.994Z,13.07
2022-10-22T09:33:06.011Z,12.77
2022-10-22T09:35:57.596Z,13.20
2022-10-22T09:38:30.692Z,13.30
2022-10-22T09:40:59.645Z,13.27
2022-10-22T09:43:27.148Z,14.17
2022-10-22T09:46:00.114Z,14.77
2022-10-22T09:48:37.985Z,13.80
2022-10-22T09:51:18.462Z,13.83
2022-10-22T09:53:48.150Z,13.77
2022-10-22T09:56:26.159Z,13.77
2022-10-22T09:58:55.625Z,14.40
2022-10-22T10:01:35.512Z,13.87
2022-10-22T10:04:08.430Z,13.17
2022-10-22T10:06:39.251Z,14.30
2022-10-22T10:09:19.223Z,14.10
2022-10-22T10:11:54.438Z,15.10
2022-10-22T10:14:30.976Z,14.50
2022-10-22T10:17:02.852Z,15.87
2022-10-22T10:19:41.701Z,13.47
2022-10-22T10:22:11.589Z,13.30
2022-10-22T10:25:02.932Z,15.23
2022-10-22T10:28:17.627Z,15.43
2022-10-22T10:30:53.762Z,14.93
2022-10-22T10:33:57.885Z,14.60
2022-10-22T10:36:42.543Z,15.33
2022-10-22T10:39:24.127Z,13.93
2022-10-22T10:42:03.665Z,14.97
2022-10-22T10:44:57.274Z,14.07
2022-10-22T10:47:24.338Z,14.23
2022-10-22T10:49:57.529Z,13.80
2022-10-22T10:52:44.340Z,13.90
2022-10-22T10:55:20.117Z,13.60
2022-10-22T10:58:10.749Z,14.80
2022-10-22T11:00:51.003Z,14.40
2022-10-22T11:03:54.101Z,14.13
2022-10-22T11:06:24.634Z,15.70
2022-10-22T11:09:05.562Z,14.73
2022-10-22T11:11:35.011Z,16.13
2022-10-22T11:14:18.413Z,15.63
2022-10-22T11:16:51.599Z,15.60
2022-10-22T11:19:50.273Z,15.33
2022-10-22T11:22:35.878Z,15.63
2022-10-22T11:25:13.136Z,15.03
2022-10-22T11:27:52.519Z,16.03
2022-10-22T11:30:21.812Z,15.90
2022-10-22T11:33:01.034Z,14.37
2022-10-22T11:35:33.089Z,15.37
2022-10-22T11:38:01.834Z,15.23
2022-10-22T11:40:28.857Z,15.27
2022-10-22T11:42:58.887Z,14.43
2022-10-22T11:45:25.978Z,15.60
2022-10-22T11:48:09.558Z,16.10
2022-10-22T11:50:47.937Z,14.87
2022-10-22T11:53:14.821Z,13.80
2022-10-22T11:55:48.526Z,15.03
2022-10-22T11:58:43.699Z,15.13
2022-10-22T12:01:11.092Z,14.40
2022-10-22T12:03:46.622Z,15.53
2022-10-22T12:06:15.641Z,15.17
2022-10-22T12:08:47.428Z,15.73
2022-10-22T12:11:41.205Z,14.83
2022-10-22T12:14:19.661Z,14.10
2022-10-22T12:16:56.113Z,15.37
2022-10-22T12:19:23.719Z,15.23
2022-10-22T12:22:00.397Z,14.87
2022-10-22T12:24:34.201Z,15.47
2022-10-22T12:27:01.318Z,14.80
2022-10-22T12:29:31.269Z,15.90
2022-10-22T12:32:03.810Z,15.33
2022-10-22T12:34:30.762Z,16.50
2022-10-22T12:36:57.889Z,15.83
2022-10-22T12:39:28.374Z,15.37
2022-10-22T12:41:55.638Z,15.03
2022-10-22T12:44:22.498Z,16.47
2022-10-22T12:46:54.421Z,16.07
2022-10-22T12:49:33.254Z,15.53
2022-10-22T12:52:04.987Z,15.53
2022-10-22T12:54:34.319Z,15.83
2022-10-22T12:57:02.005Z,16.13
2022-10-22T12:59:38.055Z,14.80
2022-10-22T13:02:24.706Z,14.73
2022-10-22T13:05:19.859Z,15.43
2022-10-22T13:07:53.370Z,15.63
2022-10-22T13:10:27.713Z,15.37
2022-10-22T13:12:56.990Z,15.63
2022-10-22T13:15:29.933Z,15.40
2022-10-22T13:18:04.456Z,15.80
2022-10-22T13:20:31.477Z,15.80
2022-10-22T13:23:03.325Z,17.17
2022-10-22T13:25:32.232Z,16.73
2022-10-22T13:28:00.873Z,15.83
2022-10-22T13:30:29.658Z,16.93
2022-10-22T13:33:00.134Z,17.03
2022-10-22T13:35:36.365Z,15.57
2022-10-22T13:38:11.313Z,16.23
2022-10-22T13:40:39.036Z,16.10
2022-10-22T13:43:06.246Z,16.43
2022-10-22T13:45:33.167Z,16.10
2022-10-22T13:48:00.330Z,16.73
2022-10-22T13:50:27.222Z,15.90
2022-10-22T13:52:56.480Z,16.53
2022-10-22T13:55:29.729Z,16.50
2022-10-22T13:58:06.374Z,17.37
2022-10-22T14:00:33.519Z,17.30
2022-10-22T14:03:00.809Z,16.23
2022-10-22T14:05:27.810Z,16.83
2022-10-22T14:07:54.885Z,18.07
2022-10-22T14:10:24.279Z,15.93
2022-10-22T14:12:53.668Z,17.47
2022-10-22T14:15:25.135Z,18.23
2022-10-22T14:18:00.092Z,17.53
2022-10-22T14:20:29.682Z,17.93
2022-10-22T14:22:56.930Z,16.93
2022-10-22T14:25:25.788Z,17.07
2022-10-22T14:27:52.879Z,16.50
2022-10-22T14:30:22.649Z,17.43
2022-10-22T14:32:50.548Z,18.47
2022-10-22T14:35:20.240Z,17.90
2022-10-22T14:37:47.861Z,17.10
2022-10-22T14:40:18.297Z,18.83
2022-10-22T14:42:47.227Z,18.70
2022-10-22T14:45:18.526Z,18.57
2022-10-22T14:47:45.655Z,17.80
2022-10-22T14:50:13.619Z,18.40
2022-10-22T14:52:43.612Z,20.43
2022-10-22T14:55:12.717Z,18.30
2022-10-22T14:57:41.264Z,19.40
2022-10-22T15:00:14.167Z,19.33
2022-10-22T15:02:41.589Z,18.83
2022-10-22T15:05:09.123Z,20.60
2022-10-22T15:07:36.509Z,20.73
2022-10-22T15:10:04.841Z,20.03
2022-10-22T15:12:32.186Z,20.83
2022-10-22T15:14:59.073Z,20.27
2022-10-22T15:17:26.228Z,20.13
2022-10-22T15:19:54.309Z,21.00
2022-10-22T15:22:21.369Z,22.73
2022-10-22T15:24:49.641Z,20.27
2022-10-22T15:27:16.775Z,20.33
2022-10-22T15:29:43.775Z,21.17
2022-10-22T15:32:10.868Z,21.30
2022-10-22T15:34:39.534Z,21.73
2022-10-22T15:37:10.178Z,21.27
2022-10-22T15:39:41.897Z,20.73
2022-10-22T15:42:10.112Z,20.20
2022-10-22T15:44:39.773Z,21.53
2022-10-22T15:47:07.864Z,21.63
2022-10-22T15:49:37.595Z,21.07
2022-10-22T15:52:06.034Z,20.63
2022-10-22T15:54:33.426Z,21.47
2022-10-22T15:57:08.580Z,21.27
2022-10-22T15:59:36.167Z,21.60
2022-10-22T16:02:03.590Z,21.40
2022-10-22T16:04:30.646Z,21.23
2022-10-22T16:06:57.987Z,21.57
2022-10-22T16:09:26.536Z,21.53
2022-10-22T16:11:55.269Z,21.77
2022-10-22T16:14:23.571Z,20.90
2022-10-22T16:16:53.084Z,21.80
2022-10-22T16:19:22.035Z,22.93
2022-10-22T16:21:51.330Z,22.67
2022-10-22T16:24:19.197Z,22.77
2022-10-22T16:26:47.093Z,23.13
2022-10-22T16:29:14.481Z,25.57
2022-10-22T16:31:43.644Z,22.70
2022-10-22T16:34:10.613Z,24.33
2022-10-22T16:36:38.373Z,24.87
2022-10-22T16:39:06.734Z,23.07
2022-10-22T16:41:35.747Z,22.97
2022-10-22T16:44:05.645Z,23.07
2022-10-22T16:46:33.378Z,23.60
2022-10-22T16:49:00.690Z,22.00
2022-10-22T16:51:28.757Z,23.57
2022-10-22T16:53:57.023Z,23.20
2022-10-22T16:56:26.105Z,24.03
2022-10-22T16:58:55.478Z,23.27
2022-10-22T17:01:26.382Z,24.67
2022-10-22T17:03:56.789Z,23.13
2022-10-22T17:06:25.292Z,25.37
2022-10-22T17:08:52.684Z,23.07
2022-10-22T17:11:22.613Z,24.77
2022-10-22T17:13:52.667Z,25.37
2022-10-22T17:16:22.984Z,24.03
2022-10-22T17:18:50.177Z,25.23
2022-10-22T17:21:17.725Z,25.27
2022-10-22T17:23:45.110Z,25.60
2022-10-22T17:26:17.117Z,26.97
2022-10-22T17:28:44.482Z,26.20
2022-10-22T17:31:19.094Z,26.07
2022-10-22T17:33:48.338Z,25.33
2022-10-22T17:36:17.574Z,25.47
2022-10-22T17:38:48.195Z,27.40
2022-10-22T17:41:20.524Z,25.80
2022-10-22T17:43:50.111Z,24.33
2022-10-22T17:46:20.425Z,25.50
2022-10-22T17:48:55.508Z,27.53
2022-10-22T17:51:24.106Z,27.00
2022-10-22T17:53:51.335Z,26.87
2022-10-22T17:56:23.717Z,28.77
2022-10-22T17:58:51.533Z,26.80
2022-10-22T18:01:29.267Z,28.40
2022-10-22T18:04:00.989Z,28.73
2022-10-22T18:06:28.881Z,28.93
2022-10-22T18:08:55.950Z,28.73
2022-10-22T18:11:25.367Z,28.10
2022-10-22T18:13:54.888Z,28.87
2022-10-22T18:16:22.372Z,29.10
2022-10-22T18:18:51.447Z,29.07
2022-10-22T18:21:19.351Z,29.83
2022-10-22T18:23:46.933Z,31.13
2022-10-22T18:26:15.342Z,29.50
2022-10-22T18:28:42.333Z,30.23
2022-10-22T18:31:13.784Z,29.10
2022-10-22T18:33:40.926Z,31.63
2022-10-22T18:36:11.182Z,29.70
2022-10-22T18:38:38.625Z,31.07
2022-10-22T18:41:07.707Z,29.43
2022-10-22T18:43:36.985Z,30.90
2022-10-22T18:46:06.463Z,29.40
2022-10-22T18:48:35.402Z,32.60
2022-10-22T18:51:08.417Z,30.23
2022-10-22T18:53:37.096Z,30.60
2022-10-22T18:56:09.685Z,30.57
2022-10-22T18:58:41.877Z,29.90
2022-10-22T19:01:09.741Z,29.23
2022-10-22T19:03:36.912Z,28.70
2022-10-22T19:06:05.013Z,28.63
2022-10-22T19:08:32.673Z,27.13
2022-10-22T19:10:59.789Z,27.77
2022-10-22T19:13:26.834Z,24.97
2022-10-22T19:15:54.317Z,26.30
2022-10-22T19:18:21.270Z,25.47
2022-10-22T19:20:57.165Z,24.97
2022-10-22T19:23:24.041Z,22.87
2022-10-22T19:26:03.178Z,23.47
2022-10-22T19:28:30.057Z,21.80
2022-10-22T19:30:57.729Z,21.83
2022-10-22T19:33:26.321Z,23.27
2022-10-22T19:35:53.537Z,21.63
2022-10-22T19:38:20.523Z,20.73
2022-10-22T19:40:47.663Z,23.00
2022-10-22T19:43:18.184Z,20.43
2022-10-22T19:45:46.148Z,19.33
2022-10-22T19:48:13.196Z,20.33
2022-10-22T19:50:40.375Z,20.50
2022-10-22T19:53:07.253Z,21.10
2022-10-22T19:55:34.572Z,20.10
2022-10-22T19:58:01.467Z,19.40
2022-10-22T20:00:29.422Z,20.13
2022-10-22T20:02:56.372Z,20.57
2022-10-22T20:07:55.217Z,20.13
2022-10-22T20:10:24.145Z,20.87
2022-10-22T20:12:52.722Z,20.43
2022-10-22T20:15:21.492Z,18.87
2022-10-22T20:17:48.507Z,20.03
2022-10-22T20:20:15.675Z,19.27
2022-10-22T20:22:43.618Z,19.40
2022-10-22T20:25:12.258Z,18.53
2022-10-22T20:27:39.215Z,18.60
2022-10-22T20:30:07.299Z,18.53
2022-10-22T20:32:37.653Z,17.97
2022-10-22T20:35:06.489Z,18.07
2022-10-22T20:37:34.510Z,18.13
2022-10-22T20:40:01.656Z,19.17
2022-10-22T20:42:28.594Z,19.57
2022-10-22T20:44:55.638Z,17.63
2022-10-22T20:47:30.420Z,17.80
2022-10-22T20:50:06.903Z,18.77
2022-10-22T20:52:33.808Z,18.27
2022-10-22T20:55:00.861Z,18.27
2022-10-22T20:57:28.359Z,17.53
2022-10-22T20:59:56.695Z,17.97
2022-10-22T21:02:23.832Z,18.57
2022-10-22T21:04:50.881Z,17.43
2022-10-22T21:07:17.752Z,17.30
2022-10-22T21:09:44.881Z,17.00
2022-10-22T21:12:11.762Z,17.87
2022-10-22T21:14:38.870Z,16.37
2022-10-22T21:17:08.036Z,16.77
2022-10-22T21:19:35.363Z,15.67
2022-10-22T21:22:02.792Z,16.50
2022-10-22T21:24:30.011Z,16.13
2022-10-22T21:26:57.117Z,14.77
2022-10-22T21:29:24.210Z,15.27
2022-10-22T21:31:52.528Z,14.60
2022-10-22T21:34:19.679Z,16.03
2022-10-22T21:39:14.621Z,15.17
2022-10-22T21:41:41.508Z,15.17
2022-10-22T21:44:08.651Z,15.13
2022-10-22T21:46:35.595Z,15.53
2022-10-22T21:49:03.969Z,15.97
2022-10-22T21:51:33.136Z,15.33
2022-10-22T21:54:00.468Z,14.80
2022-10-22T21:56:33.615Z,14.63
2022-10-22T21:59:02.052Z,14.97
2022-10-22T22:01:29.041Z,13.93
2022-10-22T22:03:56.179Z,13.90
2022-10-22T22:06:27.303Z,14.83
2022-10-22T22:08:58.222Z,13.77
2022-10-22T22:11:27.513Z,15.10
2022-10-22T22:13:56.132Z,15.77
2022-10-22T22:16:28.271Z,14.63
2022-10-22T22:19:01.697Z,14.63
2022-10-22T22:21:29.692Z,14.17
2022-10-22T22:23:57.896Z,14.30
2022-10-22T22:26:28.738Z,15.73
2022-10-22T22:28:59.731Z,14.03
2022-10-22T22:31:34.742Z,15.00
2022-10-22T22:34:05.188Z,15.30
2022-10-22T22:36:37.329Z,15.13
2022-10-22T22:39:06.795Z,14.77
2022-10-22T22:41:33.823Z,15.40
2022-10-22T22:44:00.904Z,15.43
2022-10-22T22:46:28.289Z,15.57
2022-10-22T22:48:55.405Z,15.67
2022-10-22T22:51:23.358Z,15.17
2022-10-22T22:53:50.841Z,15.63
2022-10-22T22:56:21.977Z,16.47
2022-10-22T22:58:49.370Z,15.20
2022-10-22T23:01:37.052Z,16.47
2022-10-22T23:04:16.310Z,14.90
2022-10-22T23:06:43.322Z,15.80
2022-10-22T23:09:13.082Z,15.00
2022-10-22T23:11:41.148Z,15.53
2022-10-22T23:14:10.615Z,16.03
2022-10-22T23:16:40.069Z,15.27
2022-10-22T23:19:07.670Z,16.20
2022-10-22T23:21:38.180Z,16.50
2022-10-22T23:24:12.717Z,16.00
2022-10-22T23:26:42.413Z,15.90
2022-10-22T23:29:22.825Z,15.13
2022-10-22T23:31:50.752Z,15.37
2022-10-22T23:34:20.553Z,15.60
2022-10-22T23:36:47.781Z,15.37
2022-10-22T23:39:17.783Z,15.23
2022-10-22T23:41:45.297Z,14.23
2022-10-22T23:44:12.954Z,15.07
2022-10-22T23:46:39.943Z,15.40
2022-10-22T23:49:08.795Z,16.60
2022-10-22T23:51:36.227Z,15.40
2022-10-22T23:54:05.742Z,14.87
2022-10-22T23:56:33.188Z,15.60
2022-10-22T23:59:00.277Z,16.90
